Kaszuby — C6XD6 — position and weather

sailwx.info

Track history (hours):
 
Tides and Currents Weather Stations Pressure Air Temp Water Temp Dewpoint Dewpoint Depression Visibility Wind Speed Wind Dir Waves Ship Positions

Kaszuby

Last reported at 2014-Sep-30 22:04 UTC. Time now 2014-Oct-01 00:10 UTC.
Position N 59°51' E 026°38'.

Length 190 m; draft 6.2 m.

Type: Cargo ship. MMSI: 311005600.

Date/timePositionNaut miles runAvg speedWind from/ knotsBaromVisibWave heightAir tempDewpointWater temp
2014-Sep-30 22:04N 59°51' E 026°38'612.3
2014-Sep-30 21:33N 59°56' E 026°31'4811.7
2014-Sep-30 17:26N 59°46' E 024°57'1011.6
2014-Sep-30 16:33N 59°44' E 024°37'1211.4
2014-Sep-30 15:33N 59°41' E 024°14'1211.7
2014-Sep-30 14:33N 59°38' E 023°53'1211.9
2014-Sep-30 13:33N 59°34' E 023°30'23611.2
2014-Sep-29 16:30N 56°06' E 020°05'1212.2
2014-Sep-29 15:33N 55°54' E 019°60'1212.2
2014-Sep-29 14:33N 55°43' E 019°55'1712.1
2014-Sep-29 13:11N 55°26' E 019°48'812.1
2014-Sep-29 12:33N 55°19' E 019°45'1212.3
2014-Sep-29 11:33N 55°07' E 019°40'1212.4
2014-Sep-29 10:33N 54°55' E 019°38'1211.6
2014-Sep-29 09:33N 54°43' E 019°41'9 8.9
2014-Sep-29 08:33N 54°38' E 019°53'8 8.1
2014-Sep-29 07:33N 54°39' E 020°07'4 3.4
2014-Sep-29 06:30N 54°41' E 020°12'0 0.0
2014-Sep-29 05:33N 54°41' E 020°12'0 0.0
2014-Sep-29 04:33N 54°41' E 020°12'0 0.0
2014-Sep-29 03:33N 54°41' E 020°12'0 0.0
2014-Sep-29 02:33N 54°41' E 020°12'0 0.0
2014-Sep-29 01:33N 54°41' E 020°12'0 0.0
2014-Sep-29 00:27N 54°41' E 020°12'0 0.0
2014-Sep-28 23:33N 54°41' E 020°12'0 0.0
2014-Sep-28 22:33N 54°41' E 020°12'0 0.0
2014-Sep-28 21:33N 54°41' E 020°12'0 0.0
2014-Sep-28 20:33N 54°41' E 020°12'0 0.0
2014-Sep-28 19:30N 54°41' E 020°12'0 0.0
2014-Sep-28 17:30N 54°41' E 020°12'0 0.0
2014-Sep-28 16:21N 54°41' E 020°12'0 0.0
2014-Sep-28 15:30N 54°41' E 020°12'0 0.0
2014-Sep-28 14:33N 54°41' E 020°12'0 0.0
2014-Sep-28 10:06N 54°41' E 020°12'0 0.0
2014-Sep-28 09:18N 54°41' E 020°12'0 0.0
2014-Sep-28 08:33N 54°41' E 020°12'0 0.0
2014-Sep-28 07:30N 54°41' E 020°12'0 0.0
2014-Sep-28 02:21N 54°41' E 020°12'0 0.0
2014-Sep-28 01:27N 54°41' E 020°12'0 0.0
2014-Sep-28 00:33N 54°41' E 020°12'0 0.0
2014-Sep-27 04:30N 54°41' E 020°12'0 0.0
2014-Sep-27 02:09N 54°41' E 020°12'0 0.0
2014-Sep-27 01:24N 54°41' E 020°12'0 0.0
2014-Sep-26 12:24N 54°41' E 020°12'0 0.0
2014-Sep-26 10:15N 54°41' E 020°12'0 0.0
2014-Sep-26 09:33N 54°41' E 020°12'0 0.0
2014-Sep-26 08:33N 54°41' E 020°12'0 0.0
2014-Sep-26 07:27N 54°41' E 020°12'0 0.0
2014-Sep-26 06:18N 54°41' E 020°12'0 0.0
2014-Sep-26 04:06N 54°41' E 020°12'0 0.0
2014-Sep-26 03:33N 54°41' E 020°12'0 0.0
2014-Sep-26 00:12N 54°41' E 020°12'0 0.0
2014-Sep-25 13:24N 54°41' E 020°12'0 0.0
2014-Sep-25 02:21N 54°41' E 020°12'0 0.0
2014-Sep-25 01:33N 54°41' E 020°12'0 0.0
2014-Sep-25 00:24N 54°41' E 020°12'0 0.0
2014-Sep-24 23:27N 54°41' E 020°12'0 0.0
2014-Sep-24 22:21N 54°41' E 020°12'6 0.6
2014-Sep-24 12:33N 54°39' E 020°03'6 5.6
2014-Sep-24 11:33N 54°38' E 019°54'4 4.1
2014-Sep-24 10:33N 54°40' E 019°48'0 0.1
2014-Sep-24 09:28N 54°40' E 019°48'0 0.0
2014-Sep-24 08:31N 54°40' E 019°48'0 0.1
2014-Sep-24 07:31N 54°40' E 019°48'0 0.1
2014-Sep-24 06:31N 54°40' E 019°48'0 0.0
2014-Sep-24 05:31N 54°40' E 019°48'0 0.1
2014-Sep-24 04:28N 54°40' E 019°48'0 0.0
2014-Sep-24 03:31N 54°40' E 019°47'0 0.0
2014-Sep-24 02:31N 54°40' E 019°48'0 0.0
2014-Sep-24 01:31N 54°40' E 019°48'0 0.0
2014-Sep-24 00:31N 54°40' E 019°47'0 0.0
2014-Sep-23 23:31N 54°40' E 019°47'0 0.0
2014-Sep-23 22:31N 54°40' E 019°47'0 0.0
2014-Sep-23 21:31N 54°40' E 019°47'0 0.0
2014-Sep-23 20:31N 54°40' E 019°47'0 0.0
2014-Sep-23 19:31N 54°40' E 019°47'2 2.0
2014-Sep-23 18:33N 54°39' E 019°44'9 9.5
2014-Sep-23 17:33N 54°45' E 019°31'1313.2
2014-Sep-23 16:33N 54°50' E 019°11'1312.9
2014-Sep-23 15:33N 54°53' E 018°49'1312.7
2014-Sep-23 14:33N 54°56' E 018°27'1212.3
2014-Sep-23 13:33N 54°57' E 018°06'12712.5
2014-Sep-23 03:22N 54°36' E 014°29'1113.6
2014-Sep-23 02:34N 54°38' E 014°10'1413.6
2014-Sep-23 01:33N 54°42' E 013°48'1313.4
2014-Sep-23 00:34N 54°45' E 013°25'1413.4
2014-Sep-22 23:32N 54°46' E 013°01'5250.4
2014-Sep-22 22:31N 54°27' E 011°38'2828.6
2014-Sep-22 21:33N 54°38' E 012°22'1212.4
2014-Sep-22 20:33N 54°27' E 012°12'1312.6
2014-Sep-22 19:33N 54°25' E 011°51'1413.7
2014-Sep-22 18:33N 54°30' E 011°29'1514.8
2014-Sep-22 17:33N 54°35' E 011°05'11713.0
2014-Sep-22 08:33N 56°31' E 011°37'1514.3
2014-Sep-22 07:31N 56°44' E 011°50'1413.8
2014-Sep-22 06:32N 56°57' E 011°43'1414.0
2014-Sep-22 05:33N 57°10' E 011°36'1414.1
2014-Sep-22 04:33N 57°23' E 011°27'1312.9
2014-Sep-22 03:33N 57°33' E 011°11'1313.0
2014-Sep-22 02:33N 57°42' E 010°54'1211.7
2014-Sep-22 01:33N 57°47' E 010°34'19411.4
2014-Sep-21 08:34N 55°32' E 006°23'1212.2
2014-Sep-21 07:33N 55°21' E 006°12'1212.5
2014-Sep-21 06:33N 55°10' E 006°01'5012.6
2014-Sep-21 02:33N 54°28' E 005°15'1312.5
2014-Sep-21 01:29N 54°16' E 005°04'1212.5
2014-Sep-21 00:33N 54°06' E 004°54'1312.6
2014-Sep-20 23:32N 53°53' E 004°53'1312.7
2014-Sep-20 22:29N 53°40' E 004°51'  
Track history (hours):
 
Tides and Currents Weather Stations Pressure Air Temp Water Temp Dewpoint Dewpoint Depression Visibility Wind Speed Wind Dir Waves Ship Positions

Kaszuby

Last reported at 2014-Sep-30 22:04 UTC. Time now 2014-Oct-01 00:10 UTC.
Position N 59°51' E 026°38'.

Length 190 m; draft 6.2 m.

Type: Cargo ship. MMSI: 311005600.

Date/timePositionNaut miles runAvg speedWind from/ knotsBaromVisibWave heightAir tempDewpointWater temp
2014-Sep-30 22:04N 59°51' E 026°38'612.3
2014-Sep-30 21:33N 59°56' E 026°31'4811.7
2014-Sep-30 17:26N 59°46' E 024°57'1011.6
2014-Sep-30 16:33N 59°44' E 024°37'1211.4
2014-Sep-30 15:33N 59°41' E 024°14'1211.7
2014-Sep-30 14:33N 59°38' E 023°53'1211.9
2014-Sep-30 13:33N 59°34' E 023°30'23611.2
2014-Sep-29 16:30N 56°06' E 020°05'1212.2
2014-Sep-29 15:33N 55°54' E 019°60'1212.2
2014-Sep-29 14:33N 55°43' E 019°55'1712.1
2014-Sep-29 13:11N 55°26' E 019°48'812.1
2014-Sep-29 12:33N 55°19' E 019°45'1212.3
2014-Sep-29 11:33N 55°07' E 019°40'1212.4
2014-Sep-29 10:33N 54°55' E 019°38'1211.6
2014-Sep-29 09:33N 54°43' E 019°41'9 8.9
2014-Sep-29 08:33N 54°38' E 019°53'8 8.1
2014-Sep-29 07:33N 54°39' E 020°07'4 3.4
2014-Sep-29 06:30N 54°41' E 020°12'0 0.0
2014-Sep-29 05:33N 54°41' E 020°12'0 0.0
2014-Sep-29 04:33N 54°41' E 020°12'0 0.0
2014-Sep-29 03:33N 54°41' E 020°12'0 0.0
2014-Sep-29 02:33N 54°41' E 020°12'0 0.0
2014-Sep-29 01:33N 54°41' E 020°12'0 0.0
2014-Sep-29 00:27N 54°41' E 020°12'0 0.0
2014-Sep-28 23:33N 54°41' E 020°12'0 0.0
2014-Sep-28 22:33N 54°41' E 020°12'0 0.0
2014-Sep-28 21:33N 54°41' E 020°12'0 0.0
2014-Sep-28 20:33N 54°41' E 020°12'0 0.0
2014-Sep-28 19:30N 54°41' E 020°12'0 0.0
2014-Sep-28 17:30N 54°41' E 020°12'0 0.0
2014-Sep-28 16:21N 54°41' E 020°12'0 0.0
2014-Sep-28 15:30N 54°41' E 020°12'0 0.0
2014-Sep-28 14:33N 54°41' E 020°12'0 0.0
2014-Sep-28 10:06N 54°41' E 020°12'0 0.0
2014-Sep-28 09:18N 54°41' E 020°12'0 0.0
2014-Sep-28 08:33N 54°41' E 020°12'0 0.0
2014-Sep-28 07:30N 54°41' E 020°12'0 0.0
2014-Sep-28 02:21N 54°41' E 020°12'0 0.0
2014-Sep-28 01:27N 54°41' E 020°12'0 0.0
2014-Sep-28 00:33N 54°41' E 020°12'0 0.0
2014-Sep-27 04:30N 54°41' E 020°12'0 0.0
2014-Sep-27 02:09N 54°41' E 020°12'0 0.0
2014-Sep-27 01:24N 54°41' E 020°12'0 0.0
2014-Sep-26 12:24N 54°41' E 020°12'0 0.0
2014-Sep-26 10:15N 54°41' E 020°12'0 0.0
2014-Sep-26 09:33N 54°41' E 020°12'0 0.0
2014-Sep-26 08:33N 54°41' E 020°12'0 0.0
2014-Sep-26 07:27N 54°41' E 020°12'0 0.0
2014-Sep-26 06:18N 54°41' E 020°12'0 0.0
2014-Sep-26 04:06N 54°41' E 020°12'0 0.0
2014-Sep-26 03:33N 54°41' E 020°12'0 0.0
2014-Sep-26 00:12N 54°41' E 020°12'0 0.0
2014-Sep-25 13:24N 54°41' E 020°12'0 0.0
2014-Sep-25 02:21N 54°41' E 020°12'0 0.0
2014-Sep-25 01:33N 54°41' E 020°12'0 0.0
2014-Sep-25 00:24N 54°41' E 020°12'0 0.0
2014-Sep-24 23:27N 54°41' E 020°12'0 0.0
2014-Sep-24 22:21N 54°41' E 020°12'6 0.6
2014-Sep-24 12:33N 54°39' E 020°03'6 5.6
2014-Sep-24 11:33N 54°38' E 019°54'4 4.1
2014-Sep-24 10:33N 54°40' E 019°48'0 0.1
2014-Sep-24 09:28N 54°40' E 019°48'0 0.0
2014-Sep-24 08:31N 54°40' E 019°48'0 0.1
2014-Sep-24 07:31N 54°40' E 019°48'0 0.1
2014-Sep-24 06:31N 54°40' E 019°48'0 0.0
2014-Sep-24 05:31N 54°40' E 019°48'0 0.1
2014-Sep-24 04:28N 54°40' E 019°48'0 0.0
2014-Sep-24 03:31N 54°40' E 019°47'0 0.0
2014-Sep-24 02:31N 54°40' E 019°48'0 0.0
2014-Sep-24 01:31N 54°40' E 019°48'0 0.0
2014-Sep-24 00:31N 54°40' E 019°47'0 0.0
2014-Sep-23 23:31N 54°40' E 019°47'0 0.0
2014-Sep-23 22:31N 54°40' E 019°47'0 0.0
2014-Sep-23 21:31N 54°40' E 019°47'0 0.0
2014-Sep-23 20:31N 54°40' E 019°47'0 0.0
2014-Sep-23 19:31N 54°40' E 019°47'2 2.0
2014-Sep-23 18:33N 54°39' E 019°44'9 9.5
2014-Sep-23 17:33N 54°45' E 019°31'1313.2
2014-Sep-23 16:33N 54°50' E 019°11'1312.9
2014-Sep-23 15:33N 54°53' E 018°49'1312.7
2014-Sep-23 14:33N 54°56' E 018°27'1212.3
2014-Sep-23 13:33N 54°57' E 018°06'12712.5
2014-Sep-23 03:22N 54°36' E 014°29'1113.6
2014-Sep-23 02:34N 54°38' E 014°10'1413.6
2014-Sep-23 01:33N 54°42' E 013°48'1313.4
2014-Sep-23 00:34N 54°45' E 013°25'1413.4
2014-Sep-22 23:32N 54°46' E 013°01'5250.4
2014-Sep-22 22:31N 54°27' E 011°38'2828.6
2014-Sep-22 21:33N 54°38' E 012°22'1212.4
2014-Sep-22 20:33N 54°27' E 012°12'1312.6
2014-Sep-22 19:33N 54°25' E 011°51'1413.7
2014-Sep-22 18:33N 54°30' E 011°29'1514.8
2014-Sep-22 17:33N 54°35' E 011°05'11713.0
2014-Sep-22 08:33N 56°31' E 011°37'1514.3
2014-Sep-22 07:31N 56°44' E 011°50'1413.8
2014-Sep-22 06:32N 56°57' E 011°43'1414.0
2014-Sep-22 05:33N 57°10' E 011°36'1414.1
2014-Sep-22 04:33N 57°23' E 011°27'1312.9
2014-Sep-22 03:33N 57°33' E 011°11'1313.0
2014-Sep-22 02:33N 57°42' E 010°54'1211.7
2014-Sep-22 01:33N 57°47' E 010°34'19411.4
2014-Sep-21 08:34N 55°32' E 006°23'1212.2
2014-Sep-21 07:33N 55°21' E 006°12'1212.5
2014-Sep-21 06:33N 55°10' E 006°01'5012.6
2014-Sep-21 02:33N 54°28' E 005°15'1312.5
2014-Sep-21 01:29N 54°16' E 005°04'1212.5
2014-Sep-21 00:33N 54°06' E 004°54'1312.6
2014-Sep-20 23:32N 53°53' E 004°53'1312.7
2014-Sep-20 22:29N 53°40' E 004°51'  

Dump ship's entire track history